Time;durP1;ratioP1;P1;durP2;ratioP2;P2;SDS_P1;SDS_P2;PMS_P1;PMS_P2;Temp;Humidity;BMP_temperature;BMP_pressure;BME280_temperature;BME280_humidity;BME280_pressure;Samples;Min_cycle;Max_cycle;Signal;HPM_P1;HPM_P2
2023/06/09 00:02:03;;;;;;;12.02;5.07;;;;;;;17.88;64.06;101362.53;5007873;28;20061;-82
2023/06/09 00:04:33;;;;;;;10.95;4.50;;;;;;;17.82;64.30;101358.63;5006777;28;20032;-83
2023/06/09 00:07:03;;;;;;;9.75;4.30;;;;;;;17.77;64.55;101358.25;5006624;28;20402;-83
2023/06/09 00:09:33;;;;;;;11.05;5.50;;;;;;;17.74;64.45;101355.03;5008985;28;20138;-82
2023/06/09 00:11:58;;;;;;;9.98;5.03;;;;;;;17.71;64.69;101350.84;5009010;28;20706;-83
2023/06/09 00:14:24;;;;;;;8.57;4.32;;;;;;;17.74;64.83;101357.72;5009636;28;20029;-83
2023/06/09 00:16:49;;;;;;;14.85;4.63;;;;;;;17.67;64.63;101354.81;5008301;28;20117;-82
2023/06/09 00:19:16;;;;;;;11.30;4.43;;;;;;;17.68;64.49;101360.97;5021502;28;20217;-82
2023/06/09 00:21:44;;;;;;;13.32;4.50;;;;;;;17.59;64.94;101356.47;5010118;28;20030;-83
2023/06/09 00:24:10;;;;;;;10.27;4.55;;;;;;;17.53;65.23;101352.56;5010059;28;20018;-82
2023/06/09 00:26:35;;;;;;;11.00;4.75;;;;;;;17.45;64.98;101349.81;5017676;28;20022;-82
2023/06/09 00:29:01;;;;;;;9.23;4.57;;;;;;;17.39;65.48;101343.25;5007951;28;20026;-82
2023/06/09 00:31:26;;;;;;;8.55;4.43;;;;;;;17.34;65.63;101356.16;5008399;28;20108;-82
2023/06/09 00:33:52;;;;;;;14.18;4.45;;;;;;;17.32;65.16;101344.81;5009334;28;20026;-82
2023/06/09 00:36:18;;;;;;;11.73;4.68;;;;;;;17.29;65.15;101341.59;4996365;28;20382;-83
2023/06/09 00:38:44;;;;;;;7.93;4.70;;;;;;;17.28;64.94;101347.91;5009359;28;20398;-81
2023/06/09 00:41:09;;;;;;;9.05;4.70;;;;;;;17.22;65.12;101349.34;5008219;28;20025;-81
2023/06/09 00:43:35;;;;;;;12.68;4.88;;;;;;;17.22;65.13;101349.34;5004065;28;20034;-80
2023/06/09 00:46:06;;;;;;;9.68;4.57;;;;;;;17.20;64.78;101348.59;5008787;28;20045;-79
2023/06/09 00:48:31;;;;;;;7.95;4.55;;;;;;;17.19;65.23;101344.28;5006377;28;20065;-80
2023/06/09 00:50:57;;;;;;;10.10;4.88;;;;;;;17.15;64.96;101343.72;5005764;28;20160;-80
2023/06/09 00:53:26;;;;;;;9.93;4.72;;;;;;;17.12;65.09;101348.50;5005469;28;20129;-81
2023/06/09 00:55:52;;;;;;;8.93;4.72;;;;;;;17.09;64.63;101338.97;5016628;28;20033;-81
2023/06/09 00:58:18;;;;;;;10.82;4.55;;;;;;;17.06;64.87;101338.44;5018260;28;20051;-80
2023/06/09 01:00:43;;;;;;;12.98;4.78;;;;;;;17.07;64.51;101337.44;5009065;28;20026;-80
2023/06/09 01:03:10;;;;;;;10.48;4.45;;;;;;;17.01;64.88;101335.38;5006726;28;20029;-80
2023/06/09 01:05:37;;;;;;;13.75;5.03;;;;;;;16.97;64.68;101333.97;5007264;28;20060;-78
2023/06/09 01:08:18;;;;;;;11.38;4.72;;;;;;;16.95;64.78;101333.28;5006457;28;20057;-81
2023/06/09 01:10:57;;;;;;;11.65;5.10;;;;;;;16.88;64.84;101336.53;5003718;28;20048;-81
2023/06/09 01:14:02;;;;;;;14.25;4.93;;;;;;;16.90;64.99;101334.56;5009036;28;20030;-81
2023/06/09 01:16:35;;;;;;;12.55;5.05;;;;;;;16.79;65.74;101336.50;5009405;28;20033;-81
2023/06/09 01:19:04;;;;;;;9.95;4.85;;;;;;;16.75;65.41;101332.47;4988154;28;20026;-81
2023/06/09 01:21:40;;;;;;;9.57;4.65;;;;;;;16.75;65.63;101327.16;4989832;28;20026;-82
2023/06/09 01:24:23;;;;;;;11.13;5.75;;;;;;;16.73;65.25;101327.28;4989862;28;20491;-79
2023/06/09 01:26:54;;;;;;;13.30;5.47;;;;;;;16.70;65.51;101327.56;4999453;28;20483;-81
2023/06/09 01:29:22;;;;;;;10.07;4.95;;;;;;;16.65;65.47;101324.47;5016474;28;20040;-81
2023/06/09 01:31:51;;;;;;;11.48;5.10;;;;;;;16.59;65.63;101319.72;5031201;28;20067;-79
2023/06/09 01:34:18;;;;;;;11.05;5.30;;;;;;;16.57;65.67;101316.38;5033336;28;20033;-81
2023/06/09 01:36:44;;;;;;;12.70;4.70;;;;;;;16.52;65.95;101318.63;5033389;28;20025;-81
2023/06/09 01:39:10;;;;;;;13.55;4.90;;;;;;;16.46;66.73;101320.03;5031989;28;20394;-82
2023/06/09 01:41:37;;;;;;;9.48;4.95;;;;;;;16.44;66.21;101315.81;5025799;28;20022;-81
2023/06/09 01:44:02;;;;;;;11.85;4.80;;;;;;;16.39;66.65;101312.72;5005569;28;20548;-81
2023/06/09 01:46:28;;;;;;;9.52;5.07;;;;;;;16.41;66.78;101316.06;5012818;28;20125;-81
2023/06/09 01:49:08;;;;;;;12.88;5.28;;;;;;;16.34;67.08;101312.31;5012204;28;20022;-81
2023/06/09 01:51:52;;;;;;;8.30;4.95;;;;;;;16.32;66.73;101317.75;5011934;28;20093;-81
2023/06/09 01:54:35;;;;;;;13.52;5.43;;;;;;;16.26;66.94;101319.16;5010522;28;20388;-81
2023/06/09 01:57:35;;;;;;;12.43;5.80;;;;;;;16.24;66.83;101305.19;5028460;28;20041;-81
2023/06/09 02:00:05;;;;;;;13.18;5.07;;;;;;;16.15;67.32;101308.66;5002849;28;22602;-81
2023/06/09 02:02:33;;;;;;;11.57;5.72;;;;;;;16.13;67.73;101312.44;5009506;28;20034;-81
2023/06/09 02:05:04;;;;;;;15.73;5.63;;;;;;;16.09;67.77;101317.19;5011137;28;20068;-81
2023/06/09 02:07:31;;;;;;;10.77;5.20;;;;;;;16.11;67.56;101317.91;5009972;28;20061;-80
2023/06/09 02:09:57;;;;;;;11.00;5.57;;;;;;;16.04;67.98;101310.63;5010983;28;20031;-81
2023/06/09 02:12:22;;;;;;;13.63;5.25;;;;;;;15.99;68.11;101306.53;5008810;28;20536;-81
2023/06/09 02:14:49;;;;;;;10.65;5.40;;;;;;;15.95;68.41;101301.63;5011438;28;20044;-81
2023/06/09 02:17:15;;;;;;;11.23;5.50;;;;;;;15.93;68.47;101301.78;5009995;28;20038;-81
2023/06/09 02:19:41;;;;;;;10.52;5.25;;;;;;;15.93;68.59;101298.28;5008858;28;20022;-81
2023/06/09 02:22:08;;;;;;;9.57;5.50;;;;;;;15.89;68.60;101300.38;5008659;28;20036;-80
2023/06/09 02:24:34;;;;;;;11.52;5.32;;;;;;;15.87;68.57;101297.03;5010091;28;20084;-80
2023/06/09 02:27:03;;;;;;;12.48;5.65;;;;;;;15.85;68.79;101292.84;5012237;28;20034;-81
2023/06/09 02:29:29;;;;;;;16.73;6.10;;;;;;;15.84;68.81;101294.66;5010429;28;20022;-81
2023/06/09 02:31:55;;;;;;;10.82;5.50;;;;;;;15.81;69.05;101296.72;5008433;28;20044;-80
2023/06/09 02:34:22;;;;;;;9.10;5.38;;;;;;;15.83;68.98;101300.94;5010909;28;20103;-81
2023/06/09 02:36:57;;;;;;;11.20;5.78;;;;;;;15.78;69.09;101297.00;5005867;28;20030;-83
2023/06/09 02:39:27;;;;;;;11.05;5.35;;;;;;;15.71;69.62;101298.53;5010744;28;20387;-82
2023/06/09 02:41:53;;;;;;;10.93;5.47;;;;;;;15.70;69.83;101303.00;5010788;28;20053;-82
2023/06/09 02:44:18;;;;;;;14.25;6.15;;;;;;;15.62;69.87;101303.69;5009106;28;20123;-81
2023/06/09 02:46:44;;;;;;;11.95;5.97;;;;;;;15.57;70.04;101303.19;5011873;28;20552;-81
2023/06/09 02:49:10;;;;;;;15.07;5.50;;;;;;;15.53;70.51;101303.59;5010546;28;20029;-81
2023/06/09 02:51:36;;;;;;;10.82;5.93;;;;;;;15.52;70.31;101292.13;5011387;28;20088;-82
2023/06/09 02:54:02;;;;;;;13.32;6.13;;;;;;;15.55;71.19;101299.81;5006378;28;20048;-82
2023/06/09 02:56:27;;;;;;;12.43;6.05;;;;;;;15.55;70.60;101296.34;5024850;28;20108;-82
2023/06/09 02:58:53;;;;;;;12.63;5.85;;;;;;;15.53;70.71;101293.81;5011833;28;20688;-81
2023/06/09 03:01:19;;;;;;;12.32;5.97;;;;;;;15.45;70.96;101290.16;5009841;28;20499;-81
2023/06/09 03:03:45;;;;;;;11.77;5.75;;;;;;;15.45;70.98;101292.81;5009384;28;20104;-82
2023/06/09 03:06:13;;;;;;;12.50;6.00;;;;;;;15.43;71.26;101292.94;5009988;28;20387;-81
2023/06/09 03:08:39;;;;;;;12.45;6.10;;;;;;;15.39;71.78;101296.00;5007202;28;20390;-82
2023/06/09 03:11:04;;;;;;;13.85;6.20;;;;;;;15.42;71.91;101296.56;5006227;28;20026;-82
2023/06/09 03:13:34;;;;;;;12.90;6.30;;;;;;;15.34;72.21;101304.38;5010932;28;20065;-82
2023/06/09 03:16:03;;;;;;;12.00;6.13;;;;;;;15.28;72.59;101312.84;5010139;28;20026;-81
2023/06/09 03:18:28;;;;;;;19.67;6.15;;;;;;;15.18;72.96;101312.78;5011063;28;20037;-81
2023/06/09 03:20:55;;;;;;;15.13;6.45;;;;;;;15.16;73.22;101311.22;5009173;28;20048;-81
2023/06/09 03:23:25;;;;;;;15.52;6.00;;;;;;;15.14;73.27;101303.41;5010687;28;20075;-81
2023/06/09 03:25:51;;;;;;;15.35;6.57;;;;;;;15.14;73.49;101299.94;5015469;28;20021;-81
2023/06/09 03:28:17;;;;;;;15.65;6.20;;;;;;;15.08;73.73;101311.06;4999782;28;20479;-81
2023/06/09 03:30:43;;;;;;;10.88;6.40;;;;;;;15.05;73.98;101302.41;5016952;28;20065;-81
2023/06/09 03:33:11;;;;;;;12.30;6.47;;;;;;;15.02;74.05;101302.66;5029986;28;20153;-81
2023/06/09 03:35:36;;;;;;;13.82;6.53;;;;;;;14.99;74.55;101310.88;5029918;28;20049;-81
2023/06/09 03:38:02;;;;;;;13.48;7.03;;;;;;;15.02;74.40;101310.63;5029940;28;20128;-81
2023/06/09 03:40:28;;;;;;;12.10;6.50;;;;;;;15.00;74.88;101307.25;5030493;28;20022;-81
2023/06/09 03:42:53;;;;;;;13.57;6.55;;;;;;;15.03;75.04;101307.00;5030781;28;20104;-81
2023/06/09 03:45:19;;;;;;;12.52;6.18;;;;;;;14.98;75.19;101298.59;5002826;28;20633;-81
2023/06/09 03:47:45;;;;;;;12.95;6.30;;;;;;;14.89;75.06;101312.63;4993063;28;20495;-80
2023/06/09 03:50:11;;;;;;;13.23;5.93;;;;;;;14.86;75.33;101331.44;5010467;28;20029;-82
2023/06/09 03:52:36;;;;;;;17.70;6.75;;;;;;;14.82;75.90;101327.38;5008564;28;20765;-81
2023/06/09 03:55:01;;;;;;;17.67;6.85;;;;;;;14.77;76.04;101326.06;5009639;28;20503;-80
2023/06/09 03:57:27;;;;;;;13.52;7.00;;;;;;;14.81;76.33;101327.47;5016731;28;20038;-80
2023/06/09 03:59:54;;;;;;;18.60;7.05;;;;;;;14.80;76.35;101329.28;5009335;28;20022;-81
2023/06/09 04:02:19;;;;;;;14.57;6.82;;;;;;;15.11;75.77;101321.41;5001153;28;20104;-81
2023/06/09 04:04:45;;;;;;;11.55;6.40;;;;;;;15.54;73.44;101322.03;5010195;28;20026;-81
2023/06/09 04:07:11;;;;;;;13.27;6.55;;;;;;;16.03;71.28;101317.75;5006165;28;20113;-76
2023/06/09 04:09:37;;;;;;;18.27;6.63;;;;;;;16.40;69.81;101325.03;5010349;28;20033;-81
2023/06/09 04:12:02;;;;;;;13.18;6.53;;;;;;;16.89;67.98;101318.75;5008318;28;20394;-81
2023/06/09 04:14:28;;;;;;;21.95;6.78;;;;;;;17.39;66.08;101324.63;5009157;28;20495;-81
2023/06/09 04:16:53;;;;;;;14.35;6.57;;;;;;;17.69;64.51;101330.69;5009788;28;20474;-80
2023/06/09 04:19:18;;;;;;;14.88;6.78;;;;;;;17.61;64.40;101330.53;5006705;28;20481;-80
2023/06/09 04:21:45;;;;;;;10.73;6.30;;;;;;;17.05;65.62;101336.75;5008631;28;20029;-80
2023/06/09 04:24:10;;;;;;;15.70;6.88;;;;;;;16.74;67.09;101334.28;5008176;28;20462;-80
2023/06/09 04:26:41;;;;;;;13.02;6.63;;;;;;;16.30;68.73;101328.53;5013158;28;20037;-81
2023/06/09 04:29:10;;;;;;;13.15;6.95;;;;;;;16.12;69.90;101334.66;5006751;28;20030;-80
2023/06/09 04:31:42;;;;;;;12.90;6.78;;;;;;;15.83;71.07;101338.06;5009616;28;20087;-80
2023/06/09 04:34:12;;;;;;;17.63;7.00;;;;;;;15.81;71.62;101331.22;5007707;28;20018;-80
2023/06/09 04:36:38;;;;;;;14.10;7.40;;;;;;;15.63;72.41;101342.50;5004834;28;20014;-81
2023/06/09 04:39:07;;;;;;;17.63;8.13;;;;;;;15.53;72.85;101341.56;5008485;28;20032;-78
2023/06/09 04:41:33;;;;;;;14.15;7.78;;;;;;;15.42;73.74;101331.06;5006706;28;20072;-80
2023/06/09 04:44:05;;;;;;;14.80;7.60;;;;;;;15.36;74.18;101332.44;5006127;28;20037;-80
2023/06/09 04:46:37;;;;;;;15.40;7.63;;;;;;;15.35;74.83;101337.88;5009438;28;20072;-81
2023/06/09 04:49:08;;;;;;;16.02;7.93;;;;;;;15.28;74.75;101336.72;5007666;28;20026;-80
2023/06/09 04:51:51;;;;;;;18.52;8.75;;;;;;;15.20;75.13;101339.16;5007663;28;20034;-81
2023/06/09 04:54:17;;;;;;;14.43;8.68;;;;;;;15.17;75.47;101342.91;5005717;28;20109;-79
2023/06/09 04:56:44;;;;;;;17.10;8.50;;;;;;;15.22;76.22;101337.25;5010166;28;20394;-81
2023/06/09 04:59:13;;;;;;;14.88;8.40;;;;;;;15.23;75.94;101341.56;5008992;28;20378;-81
2023/06/09 05:01:39;;;;;;;16.25;8.98;;;;;;;15.27;76.05;101348.28;5007060;28;20025;-81
2023/06/09 05:04:07;;;;;;;14.65;8.48;;;;;;;15.25;76.37;101343.13;5008064;28;20120;-81
2023/06/09 05:06:33;;;;;;;15.30;8.73;;;;;;;15.26;76.29;101343.97;5008317;28;20475;-81
2023/06/09 05:08:58;;;;;;;14.35;8.25;;;;;;;15.36;76.51;101339.53;5009080;28;20045;-82
2023/06/09 05:11:25;;;;;;;17.17;8.35;;;;;;;15.40;76.48;101346.25;5003863;28;20033;-82
2023/06/09 05:13:51;;;;;;;14.65;8.00;;;;;;;15.40;76.10;101351.56;5009448;28;20048;-81
2023/06/09 05:16:17;;;;;;;16.45;8.27;;;;;;;15.37;76.24;101343.88;5008379;28;20026;-82
2023/06/09 05:18:43;;;;;;;17.27;8.95;;;;;;;15.40;76.44;101346.25;5007522;28;20548;-82
2023/06/09 05:21:08;;;;;;;15.02;7.85;;;;;;;15.49;76.85;101353.41;5006341;28;20022;-80
2023/06/09 05:23:33;;;;;;;20.33;8.38;;;;;;;15.48;76.74;101342.94;5009068;28;20045;-80
2023/06/09 05:26:02;;;;;;;17.15;8.73;;;;;;;15.54;76.70;101345.88;5015340;28;20068;-80
2023/06/09 05:28:28;;;;;;;17.73;9.15;;;;;;;15.59;76.79;101356.13;5025226;28;20422;-81
2023/06/09 05:30:54;;;;;;;18.42;8.98;;;;;;;15.62;76.61;101356.72;4993572;28;20074;-80
2023/06/09 05:33:20;;;;;;;15.35;8.02;;;;;;;15.63;76.60;101353.09;4989375;28;20088;-80
2023/06/09 05:35:47;;;;;;;17.02;8.55;;;;;;;15.64;76.41;101346.81;4989662;28;20483;-81
2023/06/09 05:38:12;;;;;;;18.02;9.00;;;;;;;15.75;76.96;101345.88;5001891;28;20034;-81
2023/06/09 05:40:38;;;;;;;18.00;9.18;;;;;;;15.84;76.78;101353.03;5007888;28;20100;-81
2023/06/09 05:43:03;;;;;;;18.67;9.15;;;;;;;15.92;76.60;101355.00;5008376;28;20041;-82
2023/06/09 05:45:32;;;;;;;18.05;9.05;;;;;;;16.04;76.95;101347.78;5002879;28;20033;-80
2023/06/09 05:47:57;;;;;;;18.73;9.18;;;;;;;16.12;76.63;101354.09;4994513;28;20489;-81
2023/06/09 05:50:22;;;;;;;15.68;8.88;;;;;;;16.19;75.93;101352.56;5008429;28;20030;-76
2023/06/09 05:52:47;;;;;;;16.67;9.10;;;;;;;16.24;75.97;101352.97;5008023;28;20018;-81
2023/06/09 05:55:16;;;;;;;16.85;8.93;;;;;;;16.33;75.99;101345.16;5010815;28;20109;-81
2023/06/09 05:57:44;;;;;;;20.25;9.20;;;;;;;16.37;75.82;101351.88;5008967;28;20029;-81
2023/06/09 06:00:10;;;;;;;18.48;9.65;;;;;;;16.42;76.26;101350.50;5006657;28;20030;-82
2023/06/09 06:02:38;;;;;;;16.67;9.30;;;;;;;16.48;75.86;101349.94;5006284;28;20026;-80
2023/06/09 06:05:04;;;;;;;17.75;8.55;;;;;;;16.58;76.15;101344.63;5007898;28;20034;-81
2023/06/09 06:07:36;;;;;;;18.77;9.43;;;;;;;16.66;76.14;101344.78;5008488;28;20382;-80
2023/06/09 06:10:04;;;;;;;16.75;9.20;;;;;;;16.71;75.91;101349.66;5017479;28;20026;-80
2023/06/09 06:12:34;;;;;;;17.23;9.80;;;;;;;16.77;75.74;101341.97;5021320;28;20041;-80
2023/06/09 06:15:03;;;;;;;19.85;10.38;;;;;;;16.79;75.29;101340.00;5012308;28;20105;-79
2023/06/09 06:17:28;;;;;;;18.17;8.80;;;;;;;16.94;75.32;101344.91;5009037;28;20030;-78
2023/06/09 06:19:54;;;;;;;18.30;9.38;;;;;;;17.02;75.45;101347.69;5008830;28;20489;-80
2023/06/09 06:22:19;;;;;;;16.25;9.30;;;;;;;17.06;75.11;101343.75;5012042;28;20057;-79
2023/06/09 06:24:46;;;;;;;18.63;9.27;;;;;;;17.20;75.34;101349.44;5011420;28;20041;-79
2023/06/09 06:27:12;;;;;;;18.25;9.70;;;;;;;17.25;74.75;101353.53;5025226;28;20018;-78
2023/06/09 06:29:39;;;;;;;16.35;10.05;;;;;;;17.32;74.55;101346.63;5031091;28;20033;-76
2023/06/09 06:32:05;;;;;;;17.33;9.73;;;;;;;17.42;74.75;101350.94;5029726;28;20028;-80
2023/06/09 06:34:31;;;;;;;18.58;10.00;;;;;;;17.50;74.91;101352.84;5022336;28;20033;-80
2023/06/09 06:36:57;;;;;;;15.73;10.18;;;;;;;17.58;74.85;101339.66;5007425;28;20076;-80
2023/06/09 06:39:22;;;;;;;17.33;9.93;;;;;;;17.68;74.41;101345.84;5011313;28;20406;-74
2023/06/09 06:41:51;;;;;;;18.10;10.52;;;;;;;17.76;74.00;101347.75;5026249;28;20529;-79
2023/06/09 06:44:16;;;;;;;20.92;9.98;;;;;;;17.87;74.47;101344.88;5011739;28;20034;-74
2023/06/09 06:46:42;;;;;;;18.15;9.88;;;;;;;17.98;73.39;101351.81;5011694;28;20042;-74
2023/06/09 06:49:07;;;;;;;19.67;10.32;;;;;;;18.05;73.33;101350.25;5003216;28;20038;-81
2023/06/09 06:51:32;;;;;;;20.98;10.45;;;;;;;18.14;73.61;101347.53;5010540;28;20041;-80
2023/06/09 06:54:03;;;;;;;16.70;10.25;;;;;;;18.27;72.83;101341.00;5008980;28;20049;-81
2023/06/09 06:56:28;;;;;;;18.88;10.73;;;;;;;18.34;72.71;101342.06;5020927;28;20036;-81
2023/06/09 06:58:54;;;;;;;15.50;10.38;;;;;;;18.42;72.25;101335.00;5009879;28;20030;-81
2023/06/09 07:01:22;;;;;;;18.90;10.32;;;;;;;18.60;72.47;101342.13;5010137;28;20030;-81
2023/06/09 07:03:52;;;;;;;15.98;9.82;;;;;;;18.71;71.08;101334.75;5009535;28;20032;-81
2023/06/09 07:06:19;;;;;;;23.20;10.77;;;;;;;18.93;70.89;101340.59;5011168;28;20034;-81
2023/06/09 07:08:44;;;;;;;17.67;10.40;;;;;;;19.14;69.74;101345.56;5010818;28;20486;-81
2023/06/09 07:11:10;;;;;;;16.85;10.20;;;;;;;19.42;69.24;101347.91;5010084;28;20104;-80
2023/06/09 07:13:35;;;;;;;16.25;9.75;;;;;;;19.67;68.63;101348.94;5011762;28;20470;-77
2023/06/09 07:16:01;;;;;;;19.10;11.13;;;;;;;19.71;66.96;101346.78;5006882;28;20268;-79
2023/06/09 07:18:27;;;;;;;20.38;10.38;;;;;;;19.92;66.91;101352.50;5009666;28;20026;-78
2023/06/09 07:20:53;;;;;;;17.30;10.75;;;;;;;20.06;65.95;101352.91;5008711;28;20108;-79
2023/06/09 07:23:19;;;;;;;15.43;10.23;;;;;;;20.26;65.96;101349.75;5009573;28;20157;-78
2023/06/09 07:25:46;;;;;;;16.65;10.48;;;;;;;20.43;64.59;101348.00;5014705;28;20021;-78
2023/06/09 07:28:11;;;;;;;23.02;10.52;;;;;;;20.68;63.44;101348.00;5030361;28;20029;-78
2023/06/09 07:30:41;;;;;;;18.85;9.80;;;;;;;20.95;63.97;101347.66;5028914;28;20414;-79
2023/06/09 07:33:07;;;;;;;15.73;9.70;;;;;;;21.20;61.72;101343.94;5018350;28;20037;-78
2023/06/09 07:35:33;;;;;;;14.18;9.60;;;;;;;21.44;61.77;101348.44;5010381;28;20398;-79
2023/06/09 07:37:58;;;;;;;15.55;10.02;;;;;;;21.61;60.09;101341.16;5009316;28;20034;-78
2023/06/09 07:40:23;;;;;;;15.43;10.10;;;;;;;22.00;60.38;101354.56;5009966;28;20540;-79
2023/06/09 07:42:49;;;;;;;17.15;9.95;;;;;;;22.26;59.74;101346.25;5007005;28;20069;-79
2023/06/09 07:45:20;;;;;;;16.52;9.85;;;;;;;22.41;58.47;101351.66;5006705;28;20040;-79
2023/06/09 07:47:45;;;;;;;13.98;9.68;;;;;;;22.76;57.66;101339.47;4989383;28;20035;-79
2023/06/09 07:50:11;;;;;;;16.30;9.75;;;;;;;23.14;57.55;101343.00;4987367;28;20029;-79
2023/06/09 07:52:37;;;;;;;15.60;9.75;;;;;;;23.18;54.86;101346.16;4984619;28;20040;-78
2023/06/09 07:55:03;;;;;;;15.57;9.13;;;;;;;23.45;54.88;101345.53;4986251;28;20032;-81
2023/06/09 07:57:28;;;;;;;17.23;7.97;;;;;;;23.78;55.02;101334.44;4995094;28;20032;-81
2023/06/09 07:59:54;;;;;;;15.10;8.27;;;;;;;24.25;54.09;101333.94;4989477;28;20390;-81
2023/06/09 08:02:20;;;;;;;11.85;8.45;;;;;;;24.24;52.11;101332.28;4990538;28;20510;-81
2023/06/09 08:04:45;;;;;;;16.23;8.57;;;;;;;24.42;51.61;101329.19;4991396;28;20030;-81
2023/06/09 08:07:11;;;;;;;13.43;8.48;;;;;;;24.51;51.55;101334.25;4988948;28;20022;-81
2023/06/09 08:09:36;;;;;;;15.73;8.45;;;;;;;24.74;50.64;101328.63;4990497;28;20121;-81
2023/06/09 08:12:06;;;;;;;10.60;7.90;;;;;;;24.65;50.43;101330.63;4971290;28;20065;-80
2023/06/09 08:14:32;;;;;;;14.60;7.63;;;;;;;24.72;49.79;101328.00;4971775;28;20031;-80
2023/06/09 08:16:57;;;;;;;14.07;7.40;;;;;;;24.99;48.52;101331.75;4971740;28;20439;-81
2023/06/09 08:19:23;;;;;;;14.00;7.40;;;;;;;25.32;49.10;101318.50;4971450;28;20026;-82
2023/06/09 08:21:52;;;;;;;13.02;7.82;;;;;;;25.47;47.82;101329.16;4970839;28;20033;-81
2023/06/09 08:24:17;;;;;;;15.50;7.22;;;;;;;25.72;48.22;101324.13;4971436;28;20030;-81
2023/06/09 08:26:44;;;;;;;14.48;7.47;;;;;;;25.83;46.74;101324.38;4987704;28;20030;-82
2023/06/09 08:29:10;;;;;;;12.52;7.65;;;;;;;25.77;45.78;101318.97;5005225;28;20037;-81
2023/06/09 08:31:37;;;;;;;12.20;7.22;;;;;;;26.18;46.06;101314.31;5009763;28;20578;-82
2023/06/09 08:34:02;;;;;;;14.18;7.60;;;;;;;26.26;44.91;101310.59;5007705;28;20522;-82
2023/06/09 08:36:28;;;;;;;12.82;7.20;;;;;;;26.48;45.50;101306.72;5009704;28;20030;-82
2023/06/09 08:38:53;;;;;;;9.43;6.47;;;;;;;26.64;44.40;101305.47;5008580;28;20060;-82
2023/06/09 08:41:24;;;;;;;11.80;6.40;;;;;;;26.61;44.23;101305.88;4997909;28;20014;-81
2023/06/09 08:43:50;;;;;;;11.25;5.97;;;;;;;26.86;43.25;101316.88;5007635;28;20034;-81
2023/06/09 08:46:19;;;;;;;11.40;6.55;;;;;;;26.77;42.80;101313.56;5005413;28;20057;-82
2023/06/09 08:48:56;;;;;;;8.65;6.45;;;;;;;26.83;42.70;101315.44;5028017;28;20025;-83
2023/06/09 08:51:25;;;;;;;10.43;6.35;;;;;;;27.08;41.94;101306.69;5029160;28;20032;-82
2023/06/09 08:53:55;;;;;;;11.07;6.00;;;;;;;26.99;42.28;101316.06;5027637;28;20039;-82
2023/06/09 08:56:21;;;;;;;10.05;6.55;;;;;;;27.27;41.69;101316.66;5011377;28;20034;-82
2023/06/09 08:58:51;;;;;;;9.50;6.20;;;;;;;27.25;42.34;101313.31;5026688;28;20025;-83
2023/06/09 09:01:17;;;;;;;12.43;6.93;;;;;;;27.12;41.36;101303.34;5030077;28;20096;-83
2023/06/09 09:03:44;;;;;;;11.18;6.50;;;;;;;27.45;39.96;101313.25;5028348;28;20028;-82
2023/06/09 09:06:09;;;;;;;9.30;6.18;;;;;;;27.50;40.12;101299.09;5029404;28;20021;-82
2023/06/09 09:08:34;;;;;;;8.88;6.30;;;;;;;27.70;40.17;101299.88;5029028;28;20025;-81
2023/06/09 09:11:04;;;;;;;10.70;6.57;;;;;;;27.58;42.08;101302.38;5016189;28;20030;-82
2023/06/09 09:13:31;;;;;;;12.23;7.28;;;;;;;27.69;40.58;101298.22;5007948;28;20053;-82
2023/06/09 09:16:02;;;;;;;12.20;7.10;;;;;;;27.64;41.48;101300.75;5027463;28;20068;-82
2023/06/09 09:18:31;;;;;;;9.57;6.85;;;;;;;27.61;41.14;101306.53;5013747;28;20029;-82
2023/06/09 09:20:58;;;;;;;11.95;6.88;;;;;;;27.75;40.32;101297.38;5022956;28;20029;-82
2023/06/09 09:23:30;;;;;;;13.27;6.32;;;;;;;27.98;40.61;101292.22;5021878;28;20026;-82
2023/06/09 09:26:00;;;;;;;10.60;7.65;;;;;;;27.80;40.98;101285.91;5021222;28;20030;-82
2023/06/09 09:28:37;;;;;;;14.23;7.85;;;;;;;28.06;42.20;101289.28;5019291;28;20030;-82
2023/06/09 09:31:03;;;;;;;11.43;6.82;;;;;;;28.43;40.31;101289.47;4991558;28;20023;-82
2023/06/09 09:33:29;;;;;;;11.07;6.22;;;;;;;28.65;40.35;101279.06;5005252;28;20121;-82
2023/06/09 09:35:57;;;;;;;10.80;7.07;;;;;;;28.17;37.71;101278.81;4999631;28;20045;-83
2023/06/09 09:38:30;;;;;;;10.50;6.63;;;;;;;28.24;39.08;101279.63;5007824;28;20026;-82
2023/06/09 09:41:02;;;;;;;8.43;6.32;;;;;;;28.31;40.27;101285.81;5008857;28;20022;-82
2023/06/09 09:43:28;;;;;;;14.95;6.72;;;;;;;28.42;38.69;101282.41;5009089;28;20041;-82
2023/06/09 09:45:56;;;;;;;17.92;6.60;;;;;;;28.65;37.96;101271.78;5006698;28;20050;-82
2023/06/09 09:48:24;;;;;;;8.23;6.03;;;;;;;28.85;37.71;101273.50;5002014;28;20026;-82
2023/06/09 09:50:51;;;;;;;10.18;6.00;;;;;;;28.94;38.30;101269.47;5011838;28;20497;-81
2023/06/09 09:53:21;;;;;;;13.80;7.20;;;;;;;28.56;38.77;101267.69;5007047;28;20034;-81
2023/06/09 09:55:47;;;;;;;11.48;6.30;;;;;;;28.80;38.72;101267.88;5009404;28;20117;-82
2023/06/09 09:58:14;;;;;;;7.32;6.20;;;;;;;29.22;37.66;101277.91;5010825;28;20105;-82
2023/06/09 10:00:44;;;;;;;11.13;6.20;;;;;;;29.69;36.38;101266.53;5027583;28;20022;-82
2023/06/09 10:03:17;;;;;;;11.32;6.15;;;;;;;30.28;35.25;101271.09;5011612;28;20032;-82
2023/06/09 10:05:51;;;;;;;8.80;5.95;;;;;;;30.27;34.33;101264.00;5011752;28;20030;-81
2023/06/09 10:08:21;;;;;;;10.63;6.47;;;;;;;29.68;34.55;101265.69;5013093;28;20453;-81
2023/06/09 10:10:51;;;;;;;11.68;5.25;;;;;;;29.64;35.64;101261.78;5011107;28;20363;-82
2023/06/09 10:13:16;;;;;;;8.30;5.30;;;;;;;29.59;35.54;101258.91;5028010;28;20029;-81
2023/06/09 10:15:43;;;;;;;11.38;6.32;;;;;;;29.70;35.08;101252.72;5024491;28;20087;-81
2023/06/09 10:18:09;;;;;;;10.45;5.38;;;;;;;29.78;35.62;101252.41;5020782;28;20067;-83
2023/06/09 10:20:35;;;;;;;9.95;5.38;;;;;;;29.87;35.41;101253.72;5031677;28;20100;-82
2023/06/09 10:23:01;;;;;;;7.78;5.65;;;;;;;29.89;35.11;101251.59;5031514;28;20030;-82
2023/06/09 10:25:31;;;;;;;12.50;5.80;;;;;;;29.94;34.10;101259.88;5018478;28;20030;-81
2023/06/09 10:27:57;;;;;;;6.10;5.28;;;;;;;29.71;34.53;101257.09;5005453;28;20021;-81
2023/06/09 10:30:22;;;;;;;10.52;5.45;;;;;;;29.45;34.19;101255.53;5016888;28;20109;-81
2023/06/09 10:32:55;;;;;;;6.90;4.88;;;;;;;29.24;33.63;101248.69;5024542;28;20091;-81
2023/06/09 10:35:27;;;;;;;7.80;4.65;;;;;;;29.49;35.52;101250.50;5010662;28;20037;-81
2023/06/09 10:37:54;;;;;;;7.65;4.90;;;;;;;29.60;33.93;101250.53;5015112;28;20017;-81
2023/06/09 10:40:43;;;;;;;9.98;5.68;;;;;;;29.37;35.12;101252.28;5016419;28;20032;-81
2023/06/09 10:43:19;;;;;;;8.63;5.18;;;;;;;29.61;34.58;101254.06;5031147;28;20502;-82
2023/06/09 10:45:53;;;;;;;7.90;5.18;;;;;;;29.60;33.81;101241.56;5019912;28;20666;-80
2023/06/09 10:48:46;;;;;;;8.70;5.60;;;;;;;29.72;34.60;101247.91;5024261;28;20034;-81
2023/06/09 10:51:26;;;;;;;;;;;;;;;29.98;35.46;101243.13;5024910;28;20153;-79
2023/06/09 10:54:10;;;;;;;7.93;5.82;;;;;;;29.85;35.37;101241.44;5001925;28;20520;-81
2023/06/09 10:56:41;;;;;;;8.80;6.00;;;;;;;29.63;33.09;101241.97;5035502;28;20063;-80
2023/06/09 10:59:27;;;;;;;8.83;6.27;;;;;;;29.40;33.94;101235.56;5015247;28;20368;-80
2023/06/09 11:02:05;;;;;;;10.50;5.65;;;;;;;29.39;34.36;101236.63;5025381;28;20033;-80
2023/06/09 11:04:46;;;;;;;6.85;5.80;;;;;;;29.54;34.92;101232.47;5029153;28;20029;-81
2023/06/09 11:07:13;;;;;;;13.47;5.87;;;;;;;29.87;32.67;101226.59;5011078;28;20497;-81
2023/06/09 11:09:41;;;;;;;7.35;5.65;;;;;;;30.05;33.34;101227.63;5021559;28;20366;-80
2023/06/09 11:12:08;;;;;;;8.35;5.53;;;;;;;29.94;32.37;101221.88;5008960;28;20033;-80
2023/06/09 11:14:46;;;;;;;12.35;5.53;;;;;;;30.00;32.04;101224.72;5011818;28;20022;-80
2023/06/09 11:17:25;;;;;;;7.72;5.10;;;;;;;29.92;33.03;101218.56;5006744;28;20040;-81
2023/06/09 11:20:06;;;;;;;9.02;5.20;;;;;;;30.04;32.79;101218.66;5022298;28;20049;-80
2023/06/09 11:22:32;;;;;;;7.72;5.00;;;;;;;30.23;32.23;101213.94;5031093;28;20029;-80
2023/06/09 11:24:58;;;;;;;8.13;5.88;;;;;;;30.35;31.99;101217.50;5031656;28;20370;-81